Sti Gauntlet — V7HH9 — position and weather

sailwx.info

Track history (hours):
 
Tides and Currents Weather Stations Pressure Air Temp Water Temp Dewpoint Dewpoint Depression Visibility Wind Speed Wind Dir Waves Ship Positions

Sti Gauntlet

Last reported at 2018-Jun-23 17:25 UTC. Time now 2018-Jul-22 03:19 UTC.
Position N 01°26' E 103°12'.
Warning: this ship's position is 28 days out of date.

Length 249 m; draft 11.5 m.

Type: Ship. MMSI: 538005825.

Date/timePositionNaut miles runAvg speedWind from/ knotsBaromVisibWave heightAir tempDewpointWater temp
2018-Jun-23 17:25N 01°26' E 103°12'713.9
2018-Jun-23 16:55N 01°22' E 103°18'613.9
2018-Jun-23 16:30N 01°18' E 103°22'611.8
2018-Jun-23 15:58N 01°11' E 103°22'4 7.6
2018-Jun-23 15:30N 01°10' E 103°19'610.0
2018-Jun-23 14:57N 01°06' E 103°15'4 7.5
2018-Jun-23 14:27N 01°04' E 103°18'1 0.0
2018-Jun-21 17:36N 01°05' E 103°18'0 0.0
2018-Jun-21 17:29N 01°05' E 103°18'0 0.2
2018-Jun-21 16:59N 01°05' E 103°18'0 0.4
2018-Jun-21 16:24N 01°05' E 103°18'1 2.1
2018-Jun-21 15:58N 01°04' E 103°17'2 4.0
2018-Jun-21 15:30N 01°04' E 103°16'3 6.5
2018-Jun-21 15:00N 01°07' E 103°15'5 9.3
2018-Jun-21 14:26N 01°10' E 103°20'1 2.5
2018-Jun-21 13:55N 01°10' E 103°21'0 0.2
2018-Jun-21 13:16N 01°10' E 103°21'0 0.1
2018-Jun-21 12:52N 01°10' E 103°21'0 0.0
2018-Jun-21 12:25N 01°10' E 103°21'0 0.0
2018-Jun-21 11:58N 01°10' E 103°21'0 0.0
2018-Jun-21 11:16N 01°10' E 103°21'0 0.0
2018-Jun-21 10:28N 01°10' E 103°21'0 0.0
2018-Jun-21 09:55N 01°10' E 103°21'0 0.0
2018-Jun-21 09:25N 01°10' E 103°21'0 0.0
2018-Jun-21 08:43N 01°10' E 103°21'0 0.2
2018-Jun-21 08:13N 01°10' E 103°21'0 0.2
2018-Jun-21 07:58N 01°10' E 103°21'0 0.1
2018-Jun-21 07:19N 01°10' E 103°21'0 0.0
2018-Jun-21 06:58N 01°10' E 103°21'0 0.1
2018-Jun-21 06:25N 01°10' E 103°21'0 0.0
2018-Jun-21 05:58N 01°10' E 103°21'0 0.1
2018-Jun-21 05:25N 01°10' E 103°21'0 0.0
2018-Jun-21 04:30N 01°10' E 103°21'0 0.0
2018-Jun-21 03:31N 01°10' E 103°21'0 0.0
2018-Jun-21 02:57N 01°10' E 103°21'0 0.0
2018-Jun-21 02:30N 01°10' E 103°21'0 0.0
2018-Jun-21 01:58N 01°10' E 103°21'0 0.0
2018-Jun-21 01:30N 01°10' E 103°21'0 0.1
2018-Jun-21 00:57N 01°10' E 103°21'0 0.1
2018-Jun-21 00:28N 01°10' E 103°21'0 0.1
2018-Jun-20 22:19N 01°10' E 103°21'0 0.2
2018-Jun-20 21:58N 01°10' E 103°21'0 0.0
2018-Jun-20 21:28N 01°10' E 103°21'0 0.0
2018-Jun-20 20:55N 01°10' E 103°21'0 0.1
2018-Jun-20 20:22N 01°10' E 103°21'0 0.0
2018-Jun-20 19:58N 01°10' E 103°21'0 0.0
2018-Jun-20 19:22N 01°10' E 103°21'0 0.0
2018-Jun-20 18:55N 01°10' E 103°21'0 0.0
2018-Jun-20 18:13N 01°10' E 103°21'0 0.0
2018-Jun-20 17:55N 01°10' E 103°21'0 0.1
2018-Jun-20 16:55N 01°10' E 103°21'0 0.0
2018-Jun-20 15:16N 01°10' E 103°21'0 0.0
2018-Jun-20 14:16N 01°10' E 103°21'0 0.0
2018-Jun-20 13:58N 01°10' E 103°21'0 0.1
2018-Jun-20 13:25N 01°10' E 103°21'0 0.1
2018-Jun-20 13:01N 01°10' E 103°21'0 0.2
2018-Jun-20 12:16N 01°10' E 103°21'0 0.1
2018-Jun-20 11:55N 01°10' E 103°21'0 0.0
2018-Jun-20 09:49N 01°10' E 103°21'0 0.0
2018-Jun-20 09:22N 01°10' E 103°21'0 0.0
2018-Jun-20 08:55N 01°10' E 103°21'0 0.0
2018-Jun-20 08:22N 01°10' E 103°21'0 0.1
2018-Jun-20 07:49N 01°10' E 103°21'0 0.0
2018-Jun-20 06:10N 01°10' E 103°21'0 0.3
2018-Jun-20 05:46N 01°10' E 103°21'0 0.4
2018-Jun-20 05:28N 01°10' E 103°21'0 0.1
2018-Jun-20 04:48N 01°10' E 103°21'0 0.1
2018-Jun-20 04:30N 01°10' E 103°21'0 0.7
2018-Jun-20 03:58N 01°10' E 103°21'0 0.1
2018-Jun-20 03:19N 01°10' E 103°21'0 0.0
2018-Jun-20 02:58N 01°10' E 103°21'0 0.1
2018-Jun-20 02:01N 01°10' E 103°21'0 0.0
2018-Jun-20 01:52N 01°10' E 103°21'0 0.0
2018-Jun-20 01:28N 01°10' E 103°21'0 0.1
2018-Jun-20 00:55N 01°10' E 103°21'0 0.2
2018-Jun-20 00:25N 01°10' E 103°21'0 0.2
2018-Jun-20 00:01N 01°10' E 103°21'0 0.0
2018-Jun-19 23:28N 01°10' E 103°21'0 0.1
2018-Jun-19 22:43N 01°10' E 103°21'0 0.0
2018-Jun-19 22:16N 01°10' E 103°21'0 0.0
2018-Jun-19 21:49N 01°10' E 103°21'0 0.0
2018-Jun-19 21:19N 01°10' E 103°21'0 0.1
2018-Jun-19 20:43N 01°10' E 103°21'0 0.3
2018-Jun-19 20:28N 01°10' E 103°21'0 0.0
2018-Jun-19 19:55N 01°10' E 103°21'0 0.3
2018-Jun-19 19:28N 01°10' E 103°21'0 0.2
2018-Jun-19 18:52N 01°10' E 103°21'0 0.0
2018-Jun-19 17:37N 01°10' E 103°21'0 0.0
2018-Jun-19 17:31N 01°10' E 103°21'0 0.0
2018-Jun-19 16:55N 01°10' E 103°21'0 0.0
2018-Jun-19 16:30N 01°10' E 103°21'0 0.0
2018-Jun-19 15:25N 01°10' E 103°21'0 0.0
2018-Jun-19 14:52N 01°10' E 103°21'0 0.0
2018-Jun-19 13:40N 01°10' E 103°21'0 0.0
2018-Jun-19 13:16N 01°10' E 103°21'0 0.0
2018-Jun-19 12:49N 01°10' E 103°21'0 0.0
2018-Jun-19 05:49N 01°10' E 103°21'0 0.3
2018-Jun-19 05:22N 01°10' E 103°21'0 0.2
2018-Jun-19 04:52N 01°10' E 103°21'0 0.1
2018-Jun-19 04:12N 01°10' E 103°21'0 0.1
2018-Jun-19 03:52N 01°10' E 103°21'0 0.1
2018-Jun-19 03:24N 01°10' E 103°21'0 0.0
2018-Jun-19 02:58N 01°10' E 103°21'0 0.0
2018-Jun-19 02:16N 01°10' E 103°21'0 0.0
2018-Jun-19 01:52N 01°10' E 103°21'1 2.2
2018-Jun-19 01:18N 01°11' E 103°22'2 5.6
2018-Jun-19 00:59N 01°11' E 103°24'3 7.2
2018-Jun-19 00:30N 01°10' E 103°27'611.1
2018-Jun-18 23:55N 01°12' E 103°33'512.0
2018-Jun-18 23:30N 01°11' E 103°38'511.0
2018-Jun-18 23:01N 01°09' E 103°43'4 8.4
2018-Jun-18 22:30N 01°10' E 103°47'4 7.2
2018-Jun-18 22:00N 01°11' E 103°51'510.0
2018-Jun-18 21:30N 01°14' E 103°55'510.3
2018-Jun-18 21:00N 01°15' E 104°00'5 9.6
2018-Jun-18 20:30N 01°16' E 104°05'2 3.7
2018-Jun-18 19:59N 01°15' E 104°03'4 8.3
2018-Jun-18 19:30N 01°16' E 104°07'611.1
2018-Jun-18 19:00N 01°17' E 104°12'612.3
2018-Jun-18 18:30N 01°19' E 104°18'712.2
2018-Jun-18 17:56N 01°23' E 104°24'512.1
2018-Jun-18 17:30N 01°26' E 104°28'6 8.5
2018-Jun-18 16:45N 01°30' E 104°33'312.2
2018-Jun-18 16:29N 01°32' E 104°35'1512.2
2018-Jun-18 15:16N 01°35' E 104°50'412.8
2018-Jun-18 14:57N 01°35' E 104°54'63112.6
2018-Jun-16 12:59S 05°29' E 112°41'713.8
2018-Jun-16 12:29S 05°32' E 112°48'  
Track history (hours):
 
Tides and Currents Weather Stations Pressure Air Temp Water Temp Dewpoint Dewpoint Depression Visibility Wind Speed Wind Dir Waves Ship Positions

Sti Gauntlet

Last reported at 2018-Jun-23 17:25 UTC. Time now 2018-Jul-22 03:19 UTC.
Position N 01°26' E 103°12'.
Warning: this ship's position is 28 days out of date.

Length 249 m; draft 11.5 m.

Type: Ship. MMSI: 538005825.

Date/timePositionNaut miles runAvg speedWind from/ knotsBaromVisibWave heightAir tempDewpointWater temp
2018-Jun-23 17:25N 01°26' E 103°12'713.9
2018-Jun-23 16:55N 01°22' E 103°18'613.9
2018-Jun-23 16:30N 01°18' E 103°22'611.8
2018-Jun-23 15:58N 01°11' E 103°22'4 7.6
2018-Jun-23 15:30N 01°10' E 103°19'610.0
2018-Jun-23 14:57N 01°06' E 103°15'4 7.5
2018-Jun-23 14:27N 01°04' E 103°18'1 0.0
2018-Jun-21 17:36N 01°05' E 103°18'0 0.0
2018-Jun-21 17:29N 01°05' E 103°18'0 0.2
2018-Jun-21 16:59N 01°05' E 103°18'0 0.4
2018-Jun-21 16:24N 01°05' E 103°18'1 2.1
2018-Jun-21 15:58N 01°04' E 103°17'2 4.0
2018-Jun-21 15:30N 01°04' E 103°16'3 6.5
2018-Jun-21 15:00N 01°07' E 103°15'5 9.3
2018-Jun-21 14:26N 01°10' E 103°20'1 2.5
2018-Jun-21 13:55N 01°10' E 103°21'0 0.2
2018-Jun-21 13:16N 01°10' E 103°21'0 0.1
2018-Jun-21 12:52N 01°10' E 103°21'0 0.0
2018-Jun-21 12:25N 01°10' E 103°21'0 0.0
2018-Jun-21 11:58N 01°10' E 103°21'0 0.0
2018-Jun-21 11:16N 01°10' E 103°21'0 0.0
2018-Jun-21 10:28N 01°10' E 103°21'0 0.0
2018-Jun-21 09:55N 01°10' E 103°21'0 0.0
2018-Jun-21 09:25N 01°10' E 103°21'0 0.0
2018-Jun-21 08:43N 01°10' E 103°21'0 0.2
2018-Jun-21 08:13N 01°10' E 103°21'0 0.2
2018-Jun-21 07:58N 01°10' E 103°21'0 0.1
2018-Jun-21 07:19N 01°10' E 103°21'0 0.0
2018-Jun-21 06:58N 01°10' E 103°21'0 0.1
2018-Jun-21 06:25N 01°10' E 103°21'0 0.0
2018-Jun-21 05:58N 01°10' E 103°21'0 0.1
2018-Jun-21 05:25N 01°10' E 103°21'0 0.0
2018-Jun-21 04:30N 01°10' E 103°21'0 0.0
2018-Jun-21 03:31N 01°10' E 103°21'0 0.0
2018-Jun-21 02:57N 01°10' E 103°21'0 0.0
2018-Jun-21 02:30N 01°10' E 103°21'0 0.0
2018-Jun-21 01:58N 01°10' E 103°21'0 0.0
2018-Jun-21 01:30N 01°10' E 103°21'0 0.1
2018-Jun-21 00:57N 01°10' E 103°21'0 0.1
2018-Jun-21 00:28N 01°10' E 103°21'0 0.1
2018-Jun-20 22:19N 01°10' E 103°21'0 0.2
2018-Jun-20 21:58N 01°10' E 103°21'0 0.0
2018-Jun-20 21:28N 01°10' E 103°21'0 0.0
2018-Jun-20 20:55N 01°10' E 103°21'0 0.1
2018-Jun-20 20:22N 01°10' E 103°21'0 0.0
2018-Jun-20 19:58N 01°10' E 103°21'0 0.0
2018-Jun-20 19:22N 01°10' E 103°21'0 0.0
2018-Jun-20 18:55N 01°10' E 103°21'0 0.0
2018-Jun-20 18:13N 01°10' E 103°21'0 0.0
2018-Jun-20 17:55N 01°10' E 103°21'0 0.1
2018-Jun-20 16:55N 01°10' E 103°21'0 0.0
2018-Jun-20 15:16N 01°10' E 103°21'0 0.0
2018-Jun-20 14:16N 01°10' E 103°21'0 0.0
2018-Jun-20 13:58N 01°10' E 103°21'0 0.1
2018-Jun-20 13:25N 01°10' E 103°21'0 0.1
2018-Jun-20 13:01N 01°10' E 103°21'0 0.2
2018-Jun-20 12:16N 01°10' E 103°21'0 0.1
2018-Jun-20 11:55N 01°10' E 103°21'0 0.0
2018-Jun-20 09:49N 01°10' E 103°21'0 0.0
2018-Jun-20 09:22N 01°10' E 103°21'0 0.0
2018-Jun-20 08:55N 01°10' E 103°21'0 0.0
2018-Jun-20 08:22N 01°10' E 103°21'0 0.1
2018-Jun-20 07:49N 01°10' E 103°21'0 0.0
2018-Jun-20 06:10N 01°10' E 103°21'0 0.3
2018-Jun-20 05:46N 01°10' E 103°21'0 0.4
2018-Jun-20 05:28N 01°10' E 103°21'0 0.1
2018-Jun-20 04:48N 01°10' E 103°21'0 0.1
2018-Jun-20 04:30N 01°10' E 103°21'0 0.7
2018-Jun-20 03:58N 01°10' E 103°21'0 0.1
2018-Jun-20 03:19N 01°10' E 103°21'0 0.0
2018-Jun-20 02:58N 01°10' E 103°21'0 0.1
2018-Jun-20 02:01N 01°10' E 103°21'0 0.0
2018-Jun-20 01:52N 01°10' E 103°21'0 0.0
2018-Jun-20 01:28N 01°10' E 103°21'0 0.1
2018-Jun-20 00:55N 01°10' E 103°21'0 0.2
2018-Jun-20 00:25N 01°10' E 103°21'0 0.2
2018-Jun-20 00:01N 01°10' E 103°21'0 0.0
2018-Jun-19 23:28N 01°10' E 103°21'0 0.1
2018-Jun-19 22:43N 01°10' E 103°21'0 0.0
2018-Jun-19 22:16N 01°10' E 103°21'0 0.0
2018-Jun-19 21:49N 01°10' E 103°21'0 0.0
2018-Jun-19 21:19N 01°10' E 103°21'0 0.1
2018-Jun-19 20:43N 01°10' E 103°21'0 0.3
2018-Jun-19 20:28N 01°10' E 103°21'0 0.0
2018-Jun-19 19:55N 01°10' E 103°21'0 0.3
2018-Jun-19 19:28N 01°10' E 103°21'0 0.2
2018-Jun-19 18:52N 01°10' E 103°21'0 0.0
2018-Jun-19 17:37N 01°10' E 103°21'0 0.0
2018-Jun-19 17:31N 01°10' E 103°21'0 0.0
2018-Jun-19 16:55N 01°10' E 103°21'0 0.0
2018-Jun-19 16:30N 01°10' E 103°21'0 0.0
2018-Jun-19 15:25N 01°10' E 103°21'0 0.0
2018-Jun-19 14:52N 01°10' E 103°21'0 0.0
2018-Jun-19 13:40N 01°10' E 103°21'0 0.0
2018-Jun-19 13:16N 01°10' E 103°21'0 0.0
2018-Jun-19 12:49N 01°10' E 103°21'0 0.0
2018-Jun-19 05:49N 01°10' E 103°21'0 0.3
2018-Jun-19 05:22N 01°10' E 103°21'0 0.2
2018-Jun-19 04:52N 01°10' E 103°21'0 0.1
2018-Jun-19 04:12N 01°10' E 103°21'0 0.1
2018-Jun-19 03:52N 01°10' E 103°21'0 0.1
2018-Jun-19 03:24N 01°10' E 103°21'0 0.0
2018-Jun-19 02:58N 01°10' E 103°21'0 0.0
2018-Jun-19 02:16N 01°10' E 103°21'0 0.0
2018-Jun-19 01:52N 01°10' E 103°21'1 2.2
2018-Jun-19 01:18N 01°11' E 103°22'2 5.6
2018-Jun-19 00:59N 01°11' E 103°24'3 7.2
2018-Jun-19 00:30N 01°10' E 103°27'611.1
2018-Jun-18 23:55N 01°12' E 103°33'512.0
2018-Jun-18 23:30N 01°11' E 103°38'511.0
2018-Jun-18 23:01N 01°09' E 103°43'4 8.4
2018-Jun-18 22:30N 01°10' E 103°47'4 7.2
2018-Jun-18 22:00N 01°11' E 103°51'510.0
2018-Jun-18 21:30N 01°14' E 103°55'510.3
2018-Jun-18 21:00N 01°15' E 104°00'5 9.6
2018-Jun-18 20:30N 01°16' E 104°05'2 3.7
2018-Jun-18 19:59N 01°15' E 104°03'4 8.3
2018-Jun-18 19:30N 01°16' E 104°07'611.1
2018-Jun-18 19:00N 01°17' E 104°12'612.3
2018-Jun-18 18:30N 01°19' E 104°18'712.2
2018-Jun-18 17:56N 01°23' E 104°24'512.1
2018-Jun-18 17:30N 01°26' E 104°28'6 8.5
2018-Jun-18 16:45N 01°30' E 104°33'312.2
2018-Jun-18 16:29N 01°32' E 104°35'1512.2
2018-Jun-18 15:16N 01°35' E 104°50'412.8
2018-Jun-18 14:57N 01°35' E 104°54'63112.6
2018-Jun-16 12:59S 05°29' E 112°41'713.8
2018-Jun-16 12:29S 05°32' E 112°48'  

Dump ship's entire track history